Time;durP1;ratioP1;P1;durP2;ratioP2;P2;SDS_P1;SDS_P2;PMS_P1;PMS_P2;Temp;Humidity;BMP_temperature;BMP_pressure;BME280_temperature;BME280_humidity;BME280_pressure;Samples;Min_cycle;Max_cycle;Signal;HPM_P1;HPM_P2
2021/04/23 00:21:29;;;;;;;;;;;;;;;;;;;;;
2021/04/23 00:30:38;;;;;;;;;;;6.90;33.60;;;;;;4994429;28;20016;-80
2021/04/23 00:33:48;;;;;;;;;;;;;;;;;;;;;
2021/04/23 00:36:37;;;;;;;;;;;6.80;33.70;;;;;;5054985;28;20467;-80
2021/04/23 00:48:57;;;;;;;;;;;6.70;34.00;;;;;;5050166;28;20104;-80
2021/04/23 00:57:53;;;;;;;;;;;6.60;34.10;;;;;;4879674;29;19971;-79
2021/04/23 01:01:05;;;;;;;;;;;6.50;34.00;;;;;;5045266;28;20340;-80
2021/04/23 01:10:25;;;;;;;;;;;;;;;;;;;;;
2021/04/23 01:19:05;;;;;;;;;;;6.30;34.20;;;;;;5011829;28;19913;-80
2021/04/23 01:24:48;;;;;;;;;;;;;;;;;;;;;
2021/04/23 01:30:40;;;;;;;;;;;6.20;34.30;;;;;;5053252;28;19916;-80
2021/04/23 01:33:40;;;;;;;;;;;;;;;;;;;;;
2021/04/23 01:55:57;;;;;;;;;;;;;;;;;;;;;
2021/04/23 01:58:33;;;;;;;;;;;5.90;34.70;;;;;;4975349;28;19988;-79
2021/04/23 02:08:05;;;;;;;;;;;;;;;;;;;;;
2021/04/23 02:10:54;;;;;;;;;;;5.70;34.80;;;;;;5068003;28;19923;-80
2021/04/23 02:13:40;;;;;;;;;;;;;;;;;;;;;
2021/04/23 02:16:38;;;;;;;;;;;5.60;34.90;;;;;;5043104;28;19935;-79
2021/04/23 02:19:32;;;;;;;;;;;;;;;;;;;;;
2021/04/23 02:22:25;;;;;;;;;;;5.50;34.90;;;;;;5073654;28;19916;-80
2021/04/23 02:24:56;;;;;;;;;;;5.50;35.00;;;;;;5074459;28;19927;-80
2021/04/23 02:30:59;;;;;;;;;;;5.40;35.10;;;;;;5066771;28;19912;-80
2021/04/23 02:48:39;;;;;;;;;;;5.20;35.30;;;;;;5013956;28;19935;-80
2021/04/23 02:57:57;;;;;;;;;;;5.10;35.40;;;;;;5077912;22;19967;-80
2021/04/23 03:07:11;;;;;;;;;;;;;;;;;;;;;
2021/04/23 03:13:16;;;;;;;;;;;5.00;35.50;;;;;;4987873;28;19920;-80
2021/04/23 03:28:49;;;;;;;;;;;4.80;35.60;;;;;;5054396;28;19912;-80
2021/04/23 03:38:12;;;;;;;;;;;4.80;35.80;;;;;;5046167;28;19927;-80
2021/04/23 03:50:52;;;;;;;;;;;4.60;35.90;;;;;;5008626;28;19913;-80
2021/04/23 04:02:30;;;;;;;;;;;4.40;36.00;;;;;;5014922;28;19914;-80
2021/04/23 04:08:36;;;;;;;;;;;4.40;36.10;;;;;;5050948;28;20357;-80
2021/04/23 04:18:17;;;;;;;;;;;4.20;36.00;;;;;;4982211;28;20160;-80
2021/04/23 04:21:19;;;;;;;;;;;;;;;;;;;;;
2021/04/23 04:33:08;;;;;;;;;;;4.20;36.30;;;;;;4986661;28;19920;-80
2021/04/23 04:42:29;;;;;;;;;;;4.40;36.40;;;;;;5017484;28;19912;-79
2021/04/23 04:45:25;;;;;;;;;;;;;;;;;;;;;
2021/04/23 04:51:23;;;;;;;;;;;4.50;36.30;;;;;;5035337;28;19913;-81
2021/04/23 05:19:11;;;;;;;;;;;5.70;36.00;;;;;;5046322;28;19986;-80
2021/04/23 05:25:19;;;;;;;;;;;;;;;;;;;;;
2021/04/23 05:40:56;;;;;;;;;;;23.10;28.10;;;;;;5037061;28;19955;-84
2021/04/23 05:43:22;;;;;;;;;;;24.70;27.90;;;;;;5031867;28;19909;-83
2021/04/23 05:45:48;;;;;;;;;;;26.00;27.60;;;;;;5057862;28;19924;-83
2021/04/23 05:51:01;;;;;;;;;;;28.70;26.80;;;;;;5031543;28;19913;-84
2021/04/23 05:53:32;;;;;;;;;;;30.40;26.20;;;;;;5046456;28;19912;-84
2021/04/23 05:56:48;;;;;;;;;;;;;;;;;;;;;
2021/04/23 05:59:06;;;;;;;;;;;33.50;25.20;;;;;;5047343;28;19917;-84
2021/04/23 06:01:32;;;;;;;;;;;35.50;24.60;;;;;;5059568;28;20392;-84
2021/04/23 06:03:57;;;;;;;;;;;36.80;24.30;;;;;;5053185;28;19920;-84
2021/04/23 06:06:25;;;;;;;;;;;37.90;24.10;;;;;;5050535;28;20407;-84
2021/04/23 06:08:50;;;;;;;;;;;39.00;24.00;;;;;;5041614;28;19919;-83
2021/04/23 06:11:23;;;;;;;;;;;39.90;23.70;;;;;;5039973;28;19916;-84
2021/04/23 06:13:51;;;;;;;;;;;41.00;23.70;;;;;;5045125;28;19916;-84
2021/04/23 06:16:27;;;;;;;;;;;42.10;23.50;;;;;;5060560;28;19933;-84
2021/04/23 06:18:52;;;;;;;;;;;43.00;23.30;;;;;;5051572;28;19921;-82
2021/04/23 06:21:18;;;;;;;;;;;43.80;23.20;;;;;;5041400;28;19938;-82
2021/04/23 06:23:53;;;;;;;;;;;44.40;23.10;;;;;;5041066;28;19920;-82
2021/04/23 06:26:26;;;;;;;;;;;44.70;23.10;;;;;;5054232;28;19909;-82
2021/04/23 06:29:01;;;;;;;;;;;45.20;23.00;;;;;;5052624;28;19924;-83
2021/04/23 06:31:34;;;;;;;;;;;45.50;22.90;;;;;;5043588;28;20047;-82
2021/04/23 06:34:03;;;;;;;;;;;46.10;22.90;;;;;;5047595;28;19913;-83
2021/04/23 06:39:34;;;;;;;;;;;47.10;22.70;;;;;;5034182;28;19919;-83
2021/04/23 06:42:02;;;;;;;;;;;47.70;22.70;;;;;;5044180;28;19944;-84
2021/04/23 06:44:28;;;;;;;;;;;48.10;22.60;;;;;;5061856;28;20373;-82
2021/04/23 06:46:53;;;;;;;;;;;48.10;22.50;;;;;;5050939;28;19920;-83
2021/04/23 06:49:19;;;;;;;;;;;48.30;22.40;;;;;;5050998;28;20401;-83
2021/04/23 06:51:45;;;;;;;;;;;48.50;22.40;;;;;;5046506;28;19913;-83
2021/04/23 06:54:10;;;;;;;;;;;48.80;22.40;;;;;;5044896;28;19913;-83
2021/04/23 06:56:36;;;;;;;;;;;48.60;22.30;;;;;;5044576;28;19909;-83
2021/04/23 06:59:01;;;;;;;;;;;48.70;22.40;;;;;;5051884;28;19924;-84
2021/04/23 07:01:27;;;;;;;;;;;48.80;22.40;;;;;;5047669;28;19956;-83
2021/04/23 07:03:53;;;;;;;;;;;49.00;22.40;;;;;;5060498;28;20319;-84
2021/04/23 07:06:18;;;;;;;;;;;48.80;22.20;;;;;;5057060;28;19917;-83
2021/04/23 07:08:46;;;;;;;;;;;48.80;22.60;;;;;;5050940;28;19919;-84
2021/04/23 07:11:12;;;;;;;;;;;48.30;22.00;;;;;;5047517;28;19936;-84
2021/04/23 07:13:37;;;;;;;;;;;48.30;22.40;;;;;;5052553;28;20357;-83
2021/04/23 07:16:03;;;;;;;;;;;48.80;21.90;;;;;;5056201;28;19913;-83
2021/04/23 07:18:28;;;;;;;;;;;49.50;21.90;;;;;;5052381;28;19967;-84
2021/04/23 07:20:54;;;;;;;;;;;50.20;21.80;;;;;;5040633;28;19967;-83
2021/04/23 07:23:20;;;;;;;;;;;50.80;21.70;;;;;;5059701;28;19915;-84
2021/04/23 07:25:45;;;;;;;;;;;51.20;21.60;;;;;;5053281;28;20365;-82
2021/04/23 07:28:11;;;;;;;;;;;51.60;21.50;;;;;;5033254;28;20349;-84
2021/04/23 07:30:37;;;;;;;;;;;48.20;21.80;;;;;;5037743;28;19921;-82
2021/04/23 07:33:05;;;;;;;;;;;44.30;23.70;;;;;;5041867;28;19920;-82
2021/04/23 07:35:30;;;;;;;;;;;44.50;23.10;;;;;;5057068;28;19951;-82
2021/04/23 07:37:57;;;;;;;;;;;42.00;24.80;;;;;;5050645;28;19917;-82
2021/04/23 07:40:22;;;;;;;;;;;38.80;25.10;;;;;;5037431;28;20004;-82
2021/04/23 07:42:48;;;;;;;;;;;35.90;26.70;;;;;;5039941;28;19958;-81
2021/04/23 07:45:14;;;;;;;;;;;33.70;27.60;;;;;;5034611;28;19909;-81
2021/04/23 07:47:39;;;;;;;;;;;32.40;27.80;;;;;;5036990;28;20359;-82
2021/04/23 07:50:06;;;;;;;;;;;31.40;28.30;;;;;;5055615;28;19912;-82
2021/04/23 07:52:31;;;;;;;;;;;31.10;28.60;;;;;;5043026;28;19920;-82
2021/04/23 07:54:58;;;;;;;;;;;30.60;28.10;;;;;;5037373;28;20304;-81
2021/04/23 07:57:24;;;;;;;;;;;29.60;28.50;;;;;;5037253;28;19917;-82
2021/04/23 07:59:49;;;;;;;;;;;31.10;27.30;;;;;;5037975;28;19910;-82
2021/04/23 08:02:15;;;;;;;;;;;34.90;26.00;;;;;;5045255;28;19909;-82
2021/04/23 08:04:40;;;;;;;;;;;38.20;24.10;;;;;;5058589;28;20491;-81
2021/04/23 08:07:06;;;;;;;;;;;40.80;23.10;;;;;;5045990;28;19924;-82
2021/04/23 08:09:32;;;;;;;;;;;42.40;22.20;;;;;;5049539;28;19912;-82
2021/04/23 08:11:58;;;;;;;;;;;43.60;21.80;;;;;;5046901;28;19960;-82
2021/04/23 08:14:23;;;;;;;;;;;44.30;21.40;;;;;;5052681;28;19913;-83
2021/04/23 08:16:49;;;;;;;;;;;44.80;21.20;;;;;;5065425;28;19921;-83
2021/04/23 08:19:14;;;;;;;;;;;45.20;21.10;;;;;;5076434;28;19935;-83
2021/04/23 08:21:43;;;;;;;;;;;45.40;21.10;;;;;;5045146;28;19913;-82
2021/04/23 08:24:09;;;;;;;;;;;46.30;21.30;;;;;;5061725;28;19917;-83
2021/04/23 08:26:35;;;;;;;;;;;47.10;21.30;;;;;;5050819;28;20301;-83
2021/04/23 08:29:01;;;;;;;;;;;47.00;21.00;;;;;;5074986;28;19940;-83
2021/04/23 08:31:26;;;;;;;;;;;46.50;20.90;;;;;;5058747;28;19924;-83
2021/04/23 08:33:52;;;;;;;;;;;46.60;21.00;;;;;;5050790;28;19909;-84
2021/04/23 08:36:17;;;;;;;;;;;46.90;21.10;;;;;;5059993;28;20393;-83
2021/04/23 08:38:43;;;;;;;;;;;47.10;21.10;;;;;;5067324;28;20373;-83
2021/04/23 08:41:08;;;;;;;;;;;47.20;21.10;;;;;;5061489;28;19913;-82
2021/04/23 08:43:35;;;;;;;;;;;47.50;21.70;;;;;;5065259;28;19921;-82
2021/04/23 08:46:02;;;;;;;;;;;47.80;21.20;;;;;;5054223;28;19913;-83
2021/04/23 08:48:27;;;;;;;;;;;47.80;21.30;;;;;;5052457;28;19914;-83
2021/04/23 08:50:56;;;;;;;;;;;47.60;21.30;;;;;;5058180;28;19928;-83
2021/04/23 08:53:24;;;;;;;;;;;47.40;21.20;;;;;;5048860;28;19919;-83
2021/04/23 08:55:50;;;;;;;;;;;47.10;21.30;;;;;;5059055;28;19999;-83
2021/04/23 08:58:15;;;;;;;;;;;47.10;21.50;;;;;;5046921;28;19921;-84
2021/04/23 09:00:41;;;;;;;;;;;46.80;21.40;;;;;;5058119;28;19913;-83
2021/04/23 09:03:11;;;;;;;;;;;46.60;21.50;;;;;;5058162;28;19963;-83
2021/04/23 09:05:37;;;;;;;;;;;46.30;21.40;;;;;;5060723;28;19913;-83
2021/04/23 09:08:03;;;;;;;;;;;45.50;21.30;;;;;;5065951;28;19924;-83
2021/04/23 09:10:29;;;;;;;;;;;45.00;21.50;;;;;;5077177;28;19908;-82
2021/04/23 09:13:04;;;;;;;;;;;45.00;21.60;;;;;;5054369;28;20304;-82
2021/04/23 09:15:29;;;;;;;;;;;44.80;21.60;;;;;;5038049;28;19916;-83
2021/04/23 09:18:10;;;;;;;;;;;44.40;21.40;;;;;;5046732;28;19913;-83
2021/04/23 09:20:37;;;;;;;;;;;44.10;21.60;;;;;;5047695;28;20004;-84
2021/04/23 09:23:07;;;;;;;;;;;44.20;21.70;;;;;;5048117;28;19971;-83
2021/04/23 09:25:44;;;;;;;;;;;44.40;21.80;;;;;;5061796;28;19909;-83
2021/04/23 09:28:09;;;;;;;;;;;44.50;21.80;;;;;;5060885;28;19992;-82
2021/04/23 09:30:35;;;;;;;;;;;44.60;21.90;;;;;;5077241;28;19915;-83
2021/04/23 09:33:01;;;;;;;;;;;44.40;21.90;;;;;;5057225;28;19909;-79
2021/04/23 09:35:26;;;;;;;;;;;44.40;22.00;;;;;;5047031;28;19920;-82
2021/04/23 09:37:53;;;;;;;;;;;43.70;21.80;;;;;;5053037;28;19909;-83
2021/04/23 09:40:20;;;;;;;;;;;43.50;22.00;;;;;;5049348;28;20005;-82
2021/04/23 09:42:46;;;;;;;;;;;43.60;22.10;;;;;;5061385;28;19909;-82
2021/04/23 09:45:12;;;;;;;;;;;43.30;22.00;;;;;;5038685;28;19909;-82
2021/04/23 09:47:38;;;;;;;;;;;43.00;22.20;;;;;;5061063;28;19916;-83
2021/04/23 09:50:06;;;;;;;;;;;42.80;22.20;;;;;;5047409;28;20168;-82
2021/04/23 09:52:31;;;;;;;;;;;42.70;22.20;;;;;;5058293;28;19995;-82
2021/04/23 09:54:58;;;;;;;;;;;42.50;22.10;;;;;;5029826;28;19917;-83
2021/04/23 09:57:27;;;;;;;;;;;42.00;22.00;;;;;;5067703;28;19924;-82
2021/04/23 09:59:52;;;;;;;;;;;41.40;21.90;;;;;;5068329;28;19909;-82
2021/04/23 10:02:18;;;;;;;;;;;41.00;22.10;;;;;;5068137;28;20011;-80
2021/04/23 10:04:44;;;;;;;;;;;40.80;22.10;;;;;;5068184;28;19912;-81
2021/04/23 10:07:09;;;;;;;;;;;40.80;22.20;;;;;;5053945;28;20003;-81
2021/04/23 10:09:54;;;;;;;;;;;40.70;21.80;;;;;;5052978;28;19913;-82
2021/04/23 10:12:27;;;;;;;;;;;40.30;22.00;;;;;;5058624;28;20429;-82
2021/04/23 10:14:56;;;;;;;;;;;40.30;22.10;;;;;;5059747;28;19924;-83
2021/04/23 10:17:21;;;;;;;;;;;39.90;22.10;;;;;;5058007;28;19913;-82
2021/04/23 10:19:47;;;;;;;;;;;39.90;22.20;;;;;;5055475;28;19917;-83
2021/04/23 10:22:12;;;;;;;;;;;39.80;22.20;;;;;;5055501;28;20404;-81
2021/04/23 10:24:38;;;;;;;;;;;39.70;22.30;;;;;;5055795;28;19912;-81
2021/04/23 10:27:04;;;;;;;;;;;39.60;22.40;;;;;;5058782;28;19913;-83
2021/04/23 10:29:30;;;;;;;;;;;39.80;22.40;;;;;;5046661;28;19909;-83
2021/04/23 10:31:56;;;;;;;;;;;39.80;22.30;;;;;;5046213;28;19935;-82
2021/04/23 10:34:22;;;;;;;;;;;39.70;22.20;;;;;;5048468;28;19913;-82
2021/04/23 10:36:47;;;;;;;;;;;39.70;22.30;;;;;;5064617;28;19944;-83
2021/04/23 10:39:13;;;;;;;;;;;39.90;22.20;;;;;;5067610;28;19909;-83
2021/04/23 10:41:38;;;;;;;;;;;39.90;22.10;;;;;;5060846;28;19920;-83
2021/04/23 10:44:04;;;;;;;;;;;40.00;22.00;;;;;;5047987;28;19909;-83
2021/04/23 10:46:30;;;;;;;;;;;40.20;21.90;;;;;;5051933;28;19913;-82
2021/04/23 10:49:03;;;;;;;;;;;40.50;21.60;;;;;;5046481;28;19924;-83
2021/04/23 10:51:29;;;;;;;;;;;40.70;21.50;;;;;;5047435;28;19980;-83
2021/04/23 10:54:04;;;;;;;;;;;40.90;21.40;;;;;;5046606;28;19984;-82
2021/04/23 10:56:34;;;;;;;;;;;41.00;21.30;;;;;;5046549;28;20393;-83
2021/04/23 10:59:01;;;;;;;;;;;40.60;21.10;;;;;;5064497;28;19924;-82
2021/04/23 11:01:28;;;;;;;;;;;40.00;21.00;;;;;;5053197;28;19908;-82
2021/04/23 11:03:57;;;;;;;;;;;39.60;21.00;;;;;;5052316;28;19936;-84
2021/04/23 11:06:22;;;;;;;;;;;39.10;20.90;;;;;;5046564;28;19905;-83
2021/04/23 11:09:00;;;;;;;;;;;38.30;21.10;;;;;;5049448;28;19948;-83
2021/04/23 11:11:27;;;;;;;;;;;38.20;21.40;;;;;;5058191;28;20003;-84
2021/04/23 11:13:53;;;;;;;;;;;38.30;21.60;;;;;;5060366;28;19921;-85
2021/04/23 11:16:25;;;;;;;;;;;38.30;21.70;;;;;;5047122;28;19909;-84
2021/04/23 11:18:52;;;;;;;;;;;38.30;21.70;;;;;;5061411;28;19920;-85
2021/04/23 11:21:31;;;;;;;;;;;38.20;21.60;;;;;;5061550;28;19919;-83
2021/04/23 11:24:11;;;;;;;;;;;37.80;21.50;;;;;;5049742;28;19980;-83
2021/04/23 11:27:13;;;;;;;;;;;37.50;21.70;;;;;;5057599;28;19962;-84
2021/04/23 11:29:38;;;;;;;;;;;37.70;21.90;;;;;;5060832;28;20362;-83
2021/04/23 11:32:14;;;;;;;;;;;37.70;21.90;;;;;;5065971;28;19913;-84
2021/04/23 11:34:40;;;;;;;;;;;37.70;21.80;;;;;;5036378;28;19968;-83
2021/04/23 11:37:14;;;;;;;;;;;37.80;21.80;;;;;;5047397;28;19914;-83
2021/04/23 11:39:46;;;;;;;;;;;37.70;21.60;;;;;;5057627;28;19909;-84
2021/04/23 11:42:18;;;;;;;;;;;37.60;21.70;;;;;;5065798;28;19913;-83
2021/04/23 11:44:45;;;;;;;;;;;37.50;21.70;;;;;;5062343;28;19947;-83
2021/04/23 11:47:11;;;;;;;;;;;37.30;21.60;;;;;;5076275;28;19919;-84
2021/04/23 11:49:36;;;;;;;;;;;37.10;21.60;;;;;;5061227;28;19909;-83
2021/04/23 11:52:02;;;;;;;;;;;37.00;21.60;;;;;;5059154;28;20567;-83
2021/04/23 11:54:42;;;;;;;;;;;37.10;21.50;;;;;;5050930;28;19937;-83
2021/04/23 11:57:09;;;;;;;;;;;37.00;21.30;;;;;;5064325;28;19924;-83
2021/04/23 11:59:35;;;;;;;;;;;36.60;21.30;;;;;;5067478;28;19924;-83
2021/04/23 12:02:00;;;;;;;;;;;36.60;21.30;;;;;;5068974;28;19994;-82
2021/04/23 12:04:58;;;;;;;;;;;36.60;21.30;;;;;;5052773;28;19913;-83
2021/04/23 12:07:24;;;;;;;;;;;36.60;21.10;;;;;;5036272;28;20319;-83
2021/04/23 12:10:04;;;;;;;;;;;36.20;21.20;;;;;;5060841;28;19923;-83
2021/04/23 12:12:30;;;;;;;;;;;36.10;21.20;;;;;;5055634;28;19932;-82
2021/04/23 12:14:58;;;;;;;;;;;36.00;21.20;;;;;;5051556;28;19972;-82
2021/04/23 12:17:24;;;;;;;;;;;36.00;21.30;;;;;;5049334;28;19909;-83
2021/04/23 12:19:49;;;;;;;;;;;35.90;21.30;;;;;;5061349;28;19923;-82
2021/04/23 12:22:15;;;;;;;;;;;35.80;21.30;;;;;;5069381;28;19916;-83
2021/04/23 12:24:40;;;;;;;;;;;35.80;21.30;;;;;;5065569;28;19912;-82
2021/04/23 12:27:06;;;;;;;;;;;35.80;21.30;;;;;;5063652;28;19984;-81
2021/04/23 12:29:31;;;;;;;;;;;35.40;21.20;;;;;;5058994;28;19912;-83
2021/04/23 12:31:57;;;;;;;;;;;35.20;21.20;;;;;;5060444;28;19960;-82
2021/04/23 12:34:22;;;;;;;;;;;34.40;21.10;;;;;;5066726;28;19921;-82
2021/04/23 12:36:49;;;;;;;;;;;34.00;21.30;;;;;;5067567;28;19923;-82
2021/04/23 12:39:15;;;;;;;;;;;33.90;21.50;;;;;;5053318;28;19917;-81
2021/04/23 12:41:41;;;;;;;;;;;33.70;21.30;;;;;;5049918;28;19973;-82
2021/04/23 12:44:14;;;;;;;;;;;33.20;21.30;;;;;;5068868;28;19924;-81
2021/04/23 12:47:00;;;;;;;;;;;32.90;21.50;;;;;;5057821;28;19913;-83
2021/04/23 12:49:30;;;;;;;;;;;32.70;21.60;;;;;;5037469;28;19923;-80
2021/04/23 12:52:01;;;;;;;;;;;32.60;22.10;;;;;;5051554;28;19920;-83
2021/04/23 12:54:30;;;;;;;;;;;32.50;21.70;;;;;;5057666;28;19913;-80
2021/04/23 12:56:57;;;;;;;;;;;32.50;21.80;;;;;;5065537;28;19943;-82
2021/04/23 12:59:32;;;;;;;;;;;32.30;21.80;;;;;;5059227;28;19916;-81
2021/04/23 13:01:57;;;;;;;;;;;31.90;21.80;;;;;;5059767;28;19917;-82
2021/04/23 13:04:23;;;;;;;;;;;31.50;21.80;;;;;;5050349;28;20353;-81
2021/04/23 13:06:48;;;;;;;;;;;31.20;22.40;;;;;;5040767;28;19913;-83
2021/04/23 13:09:14;;;;;;;;;;;30.80;21.90;;;;;;5060921;28;19913;-83
2021/04/23 13:11:40;;;;;;;;;;;30.40;22.00;;;;;;5060112;28;19913;-79
2021/04/23 13:14:19;;;;;;;;;;;29.90;22.00;;;;;;5050427;28;20181;-81
2021/04/23 13:16:58;;;;;;;;;;;29.20;22.10;;;;;;5045499;28;19920;-81
2021/04/23 13:19:40;;;;;;;;;;;28.80;22.30;;;;;;5059569;28;20005;-81
2021/04/23 13:22:20;;;;;;;;;;;28.50;22.30;;;;;;5037907;28;19913;-81
2021/04/23 13:24:46;;;;;;;;;;;28.20;22.40;;;;;;5062534;28;19912;-82
2021/04/23 13:27:26;;;;;;;;;;;28.20;22.60;;;;;;5047320;28;20451;-81
2021/04/23 13:29:52;;;;;;;;;;;28.20;22.60;;;;;;5051746;28;19913;-79
2021/04/23 13:32:17;;;;;;;;;;;28.00;22.60;;;;;;5046165;28;19920;-80
2021/04/23 13:34:53;;;;;;;;;;;28.00;22.70;;;;;;5047154;28;19913;-82
2021/04/23 13:37:27;;;;;;;;;;;28.10;22.80;;;;;;5061173;28;19913;-80
2021/04/23 13:40:19;;;;;;;;;;;28.10;22.70;;;;;;5054940;28;20353;-78
2021/04/23 13:42:44;;;;;;;;;;;28.00;22.70;;;;;;5058914;28;19912;-83
2021/04/23 13:45:11;;;;;;;;;;;27.90;22.70;;;;;;5052109;28;20365;-82
2021/04/23 13:47:40;;;;;;;;;;;27.70;22.80;;;;;;5070938;28;19942;-81
2021/04/23 13:50:24;;;;;;;;;;;27.70;22.90;;;;;;5050181;28;19971;-81
2021/04/23 13:52:49;;;;;;;;;;;27.60;22.90;;;;;;5052140;28;19913;-82
2021/04/23 13:55:16;;;;;;;;;;;27.60;23.00;;;;;;5048254;28;19936;-82
2021/04/23 13:57:58;;;;;;;;;;;27.10;22.90;;;;;;5052377;28;19921;-82
2021/04/23 14:00:23;;;;;;;;;;;26.90;23.10;;;;;;5044528;28;19913;-83
2021/04/23 14:02:57;;;;;;;;;;;26.70;23.10;;;;;;5063728;28;19979;-81
2021/04/23 14:05:22;;;;;;;;;;;26.50;23.20;;;;;;5061058;28;19913;-81
2021/04/23 14:07:48;;;;;;;;;;;26.40;23.30;;;;;;5034765;28;19917;-85
2021/04/23 14:10:13;;;;;;;;;;;26.40;23.40;;;;;;5072658;28;19936;-82
2021/04/23 14:12:39;;;;;;;;;;;26.50;23.40;;;;;;5062242;28;19912;-82
2021/04/23 14:15:05;;;;;;;;;;;26.40;23.30;;;;;;5071328;28;19913;-81
2021/04/23 14:17:31;;;;;;;;;;;26.20;23.40;;;;;;5058980;28;20262;-81
2021/04/23 14:19:57;;;;;;;;;;;26.00;23.40;;;;;;5066225;28;19913;-82
2021/04/23 14:22:22;;;;;;;;;;;25.80;23.50;;;;;;5052147;28;19919;-81
2021/04/23 14:24:48;;;;;;;;;;;25.30;23.50;;;;;;5055631;28;19909;-82
2021/04/23 14:27:13;;;;;;;;;;;24.90;23.70;;;;;;5062823;28;19921;-82
2021/04/23 14:29:39;;;;;;;;;;;24.50;23.80;;;;;;5066774;28;19909;-81
2021/04/23 14:32:05;;;;;;;;;;;24.20;23.90;;;;;;5051029;28;20415;-81
2021/04/23 14:34:31;;;;;;;;;;;23.70;23.80;;;;;;5045671;28;19915;-81
2021/04/23 14:36:56;;;;;;;;;;;23.10;23.90;;;;;;5046987;28;19920;-82
2021/04/23 14:39:23;;;;;;;;;;;22.50;24.00;;;;;;5061545;28;20472;-79
2021/04/23 14:41:49;;;;;;;;;;;22.30;24.20;;;;;;5056112;28;19921;-81
2021/04/23 14:44:15;;;;;;;;;;;22.20;24.30;;;;;;5049395;28;19944;-81
2021/04/23 14:46:43;;;;;;;;;;;22.20;24.40;;;;;;5040253;28;19935;-82
2021/04/23 14:49:09;;;;;;;;;;;22.20;24.40;;;;;;5057401;28;19921;-81
2021/04/23 14:51:34;;;;;;;;;;;22.30;24.40;;;;;;5045290;28;19914;-82
2021/04/23 14:54:00;;;;;;;;;;;22.20;24.40;;;;;;5045817;28;19940;-81
2021/04/23 14:56:26;;;;;;;;;;;22.10;24.40;;;;;;5065982;28;19909;-80
2021/04/23 14:58:51;;;;;;;;;;;21.90;24.40;;;;;;5063685;28;19916;-82
2021/04/23 15:01:17;;;;;;;;;;;21.80;24.40;;;;;;5049512;28;19917;-81
2021/04/23 15:03:45;;;;;;;;;;;21.80;24.50;;;;;;5070764;28;19913;-81
2021/04/23 15:06:11;;;;;;;;;;;21.80;24.50;;;;;;5052590;28;19972;-81
2021/04/23 15:08:36;;;;;;;;;;;21.80;24.50;;;;;;5046841;28;19913;-82
2021/04/23 15:11:02;;;;;;;;;;;21.70;24.50;;;;;;5069414;28;21450;-80
2021/04/23 15:13:30;;;;;;;;;;;21.50;24.50;;;;;;5066238;28;19913;-80
2021/04/23 15:15:56;;;;;;;;;;;21.20;24.50;;;;;;5051157;28;20484;-82
2021/04/23 15:18:21;;;;;;;;;;;21.00;24.60;;;;;;5042052;28;19920;-81
2021/04/23 15:20:49;;;;;;;;;;;20.90;24.70;;;;;;5042504;28;19918;-81
2021/04/23 15:23:15;;;;;;;;;;;20.90;24.80;;;;;;5045185;28;20296;-80
2021/04/23 15:25:41;;;;;;;;;;;20.90;24.80;;;;;;5059662;28;19919;-80
2021/04/23 15:28:11;;;;;;;;;;;20.90;24.80;;;;;;5053870;28;19916;-83
2021/04/23 15:30:37;;;;;;;;;;;20.90;24.80;;;;;;5054233;28;20461;-81
2021/04/23 15:33:06;;;;;;;;;;;20.90;24.80;;;;;;5048999;28;19919;-80
2021/04/23 15:35:32;;;;;;;;;;;20.90;24.80;;;;;;5047688;28;19917;-81
2021/04/23 15:37:57;;;;;;;;;;;20.80;24.80;;;;;;5048103;28;19924;-81
2021/04/23 15:40:23;;;;;;;;;;;20.80;24.80;;;;;;5048881;28;19914;-82
2021/04/23 15:42:49;;;;;;;;;;;20.80;24.90;;;;;;5062412;28;19909;-80
2021/04/23 15:45:20;;;;;;;;;;;20.80;24.90;;;;;;5067754;28;20308;-80
2021/04/23 15:47:45;;;;;;;;;;;20.60;24.90;;;;;;5063665;28;19909;-81
2021/04/23 15:50:12;;;;;;;;;;;20.40;25.00;;;;;;5051540;28;19940;-82
2021/04/23 15:52:38;;;;;;;;;;;20.40;25.10;;;;;;5043717;28;19937;-80
2021/04/23 15:55:04;;;;;;;;;;;20.30;25.10;;;;;;5059435;28;20008;-81
2021/04/23 15:57:30;;;;;;;;;;;20.30;25.10;;;;;;5048801;28;19917;-82
2021/04/23 15:59:56;;;;;;;;;;;20.30;25.20;;;;;;5059191;28;19919;-82
2021/04/23 16:02:21;;;;;;;;;;;20.30;25.20;;;;;;5051535;28;20288;-82
2021/04/23 16:04:47;;;;;;;;;;;20.30;25.20;;;;;;5058496;28;19952;-82
2021/04/23 16:07:12;;;;;;;;;;;20.30;25.20;;;;;;5064767;28;19936;-82
2021/04/23 16:09:38;;;;;;;;;;;20.30;25.30;;;;;;5047918;28;19913;-83
2021/04/23 16:12:04;;;;;;;;;;;20.30;25.30;;;;;;5048163;28;19984;-80
2021/04/23 16:14:30;;;;;;;;;;;20.20;25.20;;;;;;5051836;28;19917;-80
2021/04/23 16:16:55;;;;;;;;;;;20.10;25.30;;;;;;5055288;28;20199;-81
2021/04/23 16:19:21;;;;;;;;;;;20.00;25.30;;;;;;5060667;28;19972;-82
2021/04/23 16:21:46;;;;;;;;;;;20.00;25.40;;;;;;5050885;28;19940;-82
2021/04/23 16:24:12;;;;;;;;;;;19.80;25.40;;;;;;5049534;28;19913;-82
2021/04/23 16:26:37;;;;;;;;;;;19.70;25.50;;;;;;5061640;28;19983;-83
2021/04/23 16:29:03;;;;;;;;;;;19.60;25.50;;;;;;5070592;28;19912;-81
2021/04/23 16:31:28;;;;;;;;;;;19.70;25.60;;;;;;5070350;28;19980;-82
2021/04/23 16:33:54;;;;;;;;;;;19.60;25.50;;;;;;5046421;28;20278;-82
2021/04/23 16:36:19;;;;;;;;;;;19.60;25.60;;;;;;5038917;28;19992;-82
2021/04/23 16:38:45;;;;;;;;;;;19.60;25.60;;;;;;5080706;28;19913;-81
2021/04/23 16:41:11;;;;;;;;;;;19.70;25.70;;;;;;5089253;28;19909;-82
2021/04/23 16:43:37;;;;;;;;;;;19.50;25.60;;;;;;5052220;28;19917;-81
2021/04/23 16:46:02;;;;;;;;;;;19.40;25.70;;;;;;5064791;28;19958;-82
2021/04/23 16:48:28;;;;;;;;;;;19.20;25.80;;;;;;5033807;28;19917;-83
2021/04/23 16:50:54;;;;;;;;;;;19.00;25.80;;;;;;5050218;28;19920;-83
2021/04/23 16:53:19;;;;;;;;;;;19.00;25.90;;;;;;5053409;28;19909;-82
2021/04/23 16:55:45;;;;;;;;;;;19.00;25.90;;;;;;5058365;28;19920;-81
2021/04/23 16:58:11;;;;;;;;;;;19.00;25.90;;;;;;5049595;28;19967;-81
2021/04/23 17:00:37;;;;;;;;;;;19.00;25.90;;;;;;5061993;28;19920;-82
2021/04/23 17:03:03;;;;;;;;;;;19.00;26.00;;;;;;5055325;28;19917;-82
2021/04/23 17:05:28;;;;;;;;;;;19.00;25.90;;;;;;5047544;28;19913;-81
2021/04/23 17:07:54;;;;;;;;;;;19.00;26.00;;;;;;5054104;28;19975;-82
2021/04/23 17:10:21;;;;;;;;;;;18.90;25.90;;;;;;5050452;28;20388;-80
2021/04/23 17:12:46;;;;;;;;;;;18.70;25.90;;;;;;5066660;28;19992;-80
2021/04/23 17:15:13;;;;;;;;;;;18.60;26.00;;;;;;5034130;28;19913;-81
2021/04/23 17:17:39;;;;;;;;;;;18.40;26.00;;;;;;5061217;28;19917;-82
2021/04/23 17:20:08;;;;;;;;;;;18.30;26.10;;;;;;5059590;28;19913;-81
2021/04/23 17:22:36;;;;;;;;;;;18.10;26.20;;;;;;5067994;28;19917;-82
2021/04/23 17:25:03;;;;;;;;;;;17.80;26.20;;;;;;5061750;28;20269;-82
2021/04/23 17:27:28;;;;;;;;;;;17.70;26.30;;;;;;5065987;28;20427;-81
2021/04/23 17:29:54;;;;;;;;;;;17.60;26.40;;;;;;5059260;28;19913;-82
2021/04/23 17:32:21;;;;;;;;;;;17.50;26.40;;;;;;5066668;28;20007;-81
2021/04/23 17:34:47;;;;;;;;;;;17.50;26.40;;;;;;5059742;28;19924;-81
2021/04/23 17:37:12;;;;;;;;;;;17.50;26.50;;;;;;5045543;28;19913;-81
2021/04/23 17:39:38;;;;;;;;;;;17.50;26.50;;;;;;5066980;28;19984;-81
2021/04/23 17:42:03;;;;;;;;;;;17.40;26.50;;;;;;5048725;28;19996;-80
2021/04/23 17:44:29;;;;;;;;;;;17.40;26.60;;;;;;5053682;28;19912;-81
2021/04/23 17:46:54;;;;;;;;;;;17.30;26.60;;;;;;5061063;28;19913;-81
2021/04/23 17:49:20;;;;;;;;;;;17.20;27.00;;;;;;5061825;28;19917;-80
2021/04/23 17:51:45;;;;;;;;;;;17.10;26.60;;;;;;5068649;28;19913;-82
2021/04/23 17:54:12;;;;;;;;;;;17.00;26.60;;;;;;5063350;28;19913;-83
2021/04/23 17:56:40;;;;;;;;;;;17.00;26.70;;;;;;5079558;28;20500;-82
2021/04/23 17:59:06;;;;;;;;;;;16.90;26.70;;;;;;5050842;28;20015;-83
2021/04/23 18:01:32;;;;;;;;;;;16.90;26.70;;;;;;5058670;28;19959;-82
2021/04/23 18:03:57;;;;;;;;;;;16.80;26.70;;;;;;5056704;28;19913;-82
2021/04/23 18:06:23;;;;;;;;;;;16.70;26.80;;;;;;5041354;28;19919;-82
2021/04/23 18:08:49;;;;;;;;;;;16.60;26.70;;;;;;5058535;28;19913;-81
2021/04/23 18:11:14;;;;;;;;;;;16.50;26.80;;;;;;5074113;28;19919;-81
2021/04/23 18:13:40;;;;;;;;;;;16.50;26.80;;;;;;5048543;28;19967;-82
2021/04/23 18:16:06;;;;;;;;;;;16.40;26.90;;;;;;5048454;28;19919;-82
2021/04/23 18:18:31;;;;;;;;;;;16.30;26.90;;;;;;5040934;28;19913;-84
2021/04/23 18:20:57;;;;;;;;;;;16.20;27.00;;;;;;5046618;28;20329;-82
2021/04/23 18:23:22;;;;;;;;;;;16.10;27.00;;;;;;5079303;28;19934;-82
2021/04/23 18:25:48;;;;;;;;;;;16.00;27.00;;;;;;5044311;28;19920;-84
2021/04/23 18:28:17;;;;;;;;;;;15.80;27.00;;;;;;5055303;28;20074;-83
2021/04/23 18:30:43;;;;;;;;;;;15.70;27.00;;;;;;5050457;28;19916;-82
2021/04/23 18:33:08;;;;;;;;;;;15.60;27.10;;;;;;5042414;28;20300;-84
2021/04/23 18:35:34;;;;;;;;;;;15.50;27.10;;;;;;5061912;28;19986;-83
2021/04/23 18:38:00;;;;;;;;;;;15.30;27.10;;;;;;5042178;28;20305;-84
2021/04/23 18:40:26;;;;;;;;;;;15.20;27.20;;;;;;5065707;28;19924;-84
2021/04/23 18:42:55;;;;;;;;;;;15.10;27.20;;;;;;5045222;28;19952;-84